createdAt,value
2018-12-04T00:04:49.998Z,11.90
2018-12-04T00:07:37.615Z,11.90
2018-12-04T00:10:25.180Z,12.00
2018-12-04T00:13:12.728Z,12.00
2018-12-04T00:16:00.654Z,12.00
2018-12-04T00:18:48.202Z,11.80
2018-12-04T00:21:36.039Z,11.70
2018-12-04T00:24:23.601Z,11.70
2018-12-04T00:30:07.404Z,11.50
2018-12-04T00:32:54.964Z,11.40
2018-12-04T00:35:42.552Z,11.40
2018-12-04T00:38:30.484Z,11.40
2018-12-04T00:41:18.054Z,11.40
2018-12-04T00:44:05.619Z,11.40
2018-12-04T00:46:53.804Z,11.40
2018-12-04T00:49:41.624Z,11.40
2018-12-04T00:52:29.482Z,11.50
2018-12-04T00:58:26.233Z,11.70
2018-12-04T01:01:14.069Z,11.20
2018-12-04T01:04:01.618Z,10.90
2018-12-04T01:09:48.726Z,10.70
2018-12-04T01:15:35.174Z,10.70
2018-12-04T01:18:22.747Z,10.70
2018-12-04T01:21:10.647Z,10.50
2018-12-04T01:30:06.107Z,10.10
2018-12-04T01:32:53.682Z,10.00
2018-12-04T01:35:41.242Z,10.00
2018-12-04T01:38:28.810Z,9.90
2018-12-04T01:41:16.354Z,9.80
2018-12-04T01:44:04.256Z,9.70
2018-12-04T01:46:51.821Z,9.60
2018-12-04T01:49:39.635Z,9.40
2018-12-04T01:52:27.707Z,9.30
2018-12-04T01:55:15.255Z,9.30
2018-12-04T01:58:02.854Z,9.30
2018-12-04T02:00:50.756Z,9.20
2018-12-04T02:03:38.904Z,9.10
2018-12-04T02:06:26.739Z,9.10
2018-12-04T02:09:14.566Z,9.20
2018-12-04T02:12:02.123Z,9.10
2018-12-04T02:14:49.698Z,9.10
2018-12-04T02:17:37.264Z,9.10
2018-12-04T02:20:24.814Z,9.10
2018-12-04T02:23:12.732Z,9.00
2018-12-04T02:26:00.363Z,9.10
2018-12-04T02:28:48.500Z,9.00
2018-12-04T02:34:32.163Z,9.00
2018-12-04T02:37:19.834Z,9.00
2018-12-04T02:40:07.402Z,8.90
2018-12-04T02:42:54.961Z,8.90
2018-12-04T02:48:36.220Z,8.90
2018-12-04T02:51:23.788Z,8.90
2018-12-04T02:54:11.375Z,8.90
2018-12-04T02:56:58.951Z,8.80
2018-12-04T02:59:46.782Z,8.90
2018-12-04T03:02:27.367Z,8.90
2018-12-04T03:05:08.419Z,8.90
2018-12-04T03:07:49.376Z,9.00
2018-12-04T03:10:29.920Z,8.90
2018-12-04T03:13:10.705Z,8.80
2018-12-04T03:15:51.527Z,8.90
2018-12-04T03:18:31.583Z,8.90
2018-12-04T03:21:12.204Z,8.90
2018-12-04T03:23:53.101Z,9.00
2018-12-04T03:26:33.939Z,9.00
2018-12-04T03:29:14.126Z,9.00
2018-12-04T03:31:54.200Z,9.00
2018-12-04T03:34:35.331Z,8.80
2018-12-04T03:37:16.383Z,8.80
2018-12-04T03:39:57.024Z,8.80
2018-12-04T03:42:37.704Z,8.80
2018-12-04T03:45:18.007Z,8.80
2018-12-04T03:47:58.686Z,8.80
2018-12-04T03:50:39.240Z,8.80
2018-12-04T03:53:20.322Z,8.70
2018-12-04T03:56:00.782Z,8.70
2018-12-04T03:58:42.054Z,8.70
2018-12-04T04:01:22.984Z,8.70
2018-12-04T04:04:03.551Z,8.70
2018-12-04T04:06:43.892Z,8.50
2018-12-04T04:09:24.520Z,8.50
2018-12-04T04:12:05.654Z,8.50
2018-12-04T04:14:45.839Z,8.50
2018-12-04T04:17:26.475Z,8.60
2018-12-04T04:20:07.490Z,8.60
2018-12-04T04:22:48.193Z,8.60
2018-12-04T04:25:28.642Z,8.60
2018-12-04T04:28:09.741Z,8.70
2018-12-04T04:30:50.387Z,8.70
2018-12-04T04:33:30.838Z,8.60
2018-12-04T04:36:11.385Z,8.50
2018-12-04T04:38:51.819Z,8.60
2018-12-04T04:41:32.860Z,8.60
2018-12-04T04:44:13.554Z,8.50
2018-12-04T04:46:54.015Z,8.60
2018-12-04T04:49:35.019Z,8.50
2018-12-04T04:52:16.006Z,8.60
2018-12-04T04:54:56.653Z,8.60
2018-12-04T04:57:37.846Z,8.60
2018-12-04T05:00:18.607Z,8.60
2018-12-04T05:02:58.804Z,8.60
2018-12-04T05:05:40.038Z,8.60
2018-12-04T05:08:28.167Z,8.60
2018-12-04T05:11:15.744Z,8.50
2018-12-04T05:14:03.387Z,8.60
2018-12-04T05:16:51.230Z,8.60
2018-12-04T05:19:38.795Z,8.60
2018-12-04T05:22:26.631Z,8.60
2018-12-04T05:25:14.466Z,8.60
2018-12-04T05:28:02.408Z,8.60
2018-12-04T05:33:59.379Z,8.50
2018-12-04T05:36:47.210Z,8.50
2018-12-04T05:39:35.054Z,8.50
2018-12-04T05:42:22.642Z,8.50
2018-12-04T05:45:10.515Z,8.50
2018-12-04T05:47:58.460Z,8.40
2018-12-04T05:50:46.027Z,8.50
2018-12-04T05:53:34.484Z,8.50
2018-12-04T05:56:29.838Z,8.50
2018-12-04T05:59:17.410Z,8.50
2018-12-04T06:02:04.963Z,8.50
2018-12-04T06:04:52.837Z,8.60
2018-12-04T06:07:40.775Z,8.50
2018-12-04T06:10:28.609Z,8.50
2018-12-04T06:13:16.195Z,8.40
2018-12-04T06:16:03.855Z,8.30
2018-12-04T06:18:51.426Z,8.40
2018-12-04T06:21:38.989Z,8.30
2018-12-04T06:24:26.868Z,8.30
2018-12-04T06:27:14.726Z,8.20
2018-12-04T06:30:02.364Z,8.20
2018-12-04T06:35:58.810Z,8.20
2018-12-04T06:38:46.740Z,8.10
2018-12-04T06:41:34.299Z,8.10
2018-12-04T06:44:21.877Z,8.10
2018-12-04T06:47:09.835Z,8.00
2018-12-04T06:49:57.401Z,8.00
2018-12-04T06:52:45.297Z,8.00
2018-12-04T06:55:32.862Z,7.90
2018-12-04T06:58:20.418Z,7.90
2018-12-04T07:01:08.396Z,7.90
2018-12-04T07:03:56.235Z,8.00
2018-12-04T07:06:43.824Z,7.90
2018-12-04T07:09:31.382Z,7.90
2018-12-04T07:12:19.233Z,7.90
2018-12-04T07:15:06.974Z,7.80
2018-12-04T07:17:54.518Z,7.70
2018-12-04T07:20:42.100Z,7.70
2018-12-04T07:23:29.960Z,7.80
2018-12-04T07:26:17.546Z,7.70
2018-12-04T07:29:05.097Z,7.70
2018-12-04T07:31:52.676Z,7.80
2018-12-04T07:34:40.487Z,7.80
2018-12-04T07:37:28.074Z,7.70
2018-12-04T07:40:15.640Z,7.70
2018-12-04T07:43:03.202Z,7.70
2018-12-04T07:45:50.866Z,7.60
2018-12-04T07:48:38.419Z,7.60
2018-12-04T07:51:26.008Z,7.70
2018-12-04T07:54:13.583Z,7.60
2018-12-04T07:57:01.537Z,7.60
2018-12-04T07:59:49.346Z,7.50
2018-12-04T08:05:35.854Z,7.50
2018-12-04T08:08:23.748Z,7.60
2018-12-04T08:11:11.689Z,7.50
2018-12-04T08:13:59.249Z,7.60
2018-12-04T08:16:47.084Z,7.70
2018-12-04T08:19:34.640Z,7.70
2018-12-04T08:22:22.238Z,7.70
2018-12-04T08:25:09.896Z,7.60
2018-12-04T08:27:57.738Z,7.60
2018-12-04T08:30:45.916Z,7.50
2018-12-04T08:33:33.855Z,7.50
2018-12-04T08:36:21.794Z,7.60
2018-12-04T08:39:13.119Z,7.50
2018-12-04T08:41:59.411Z,7.50
2018-12-04T08:47:35.751Z,7.60
2018-12-04T08:50:23.374Z,7.60
2018-12-04T08:53:11.256Z,7.60
2018-12-04T08:55:58.826Z,7.70
2018-12-04T08:58:46.400Z,7.60
2018-12-04T09:01:33.955Z,7.60
2018-12-04T09:04:21.778Z,7.60
2018-12-04T09:07:09.629Z,7.50
2018-12-04T09:09:57.434Z,7.50
2018-12-04T09:12:45.530Z,7.60
2018-12-04T09:15:33.434Z,7.60
2018-12-04T09:18:21.023Z,7.50
2018-12-04T09:21:08.717Z,7.40
2018-12-04T09:23:58.198Z,7.50
2018-12-04T09:26:45.838Z,7.60
2018-12-04T09:29:33.489Z,7.60
2018-12-04T09:32:23.215Z,7.60
2018-12-04T09:35:10.870Z,7.60
2018-12-04T09:37:58.455Z,7.70
2018-12-04T09:40:46.099Z,7.70
2018-12-04T09:43:33.939Z,7.70
2018-12-04T09:46:21.782Z,7.70
2018-12-04T09:49:09.619Z,7.80
2018-12-04T09:51:57.185Z,7.70
2018-12-04T09:54:44.771Z,7.70
2018-12-04T09:57:32.610Z,7.80
2018-12-04T10:00:20.184Z,7.90
2018-12-04T10:03:08.076Z,7.90
2018-12-04T10:05:55.651Z,7.80
2018-12-04T10:08:43.545Z,7.90
2018-12-04T10:11:31.701Z,7.80
2018-12-04T10:14:19.525Z,7.90
2018-12-04T10:17:07.322Z,8.00
2018-12-04T10:19:54.891Z,8.10
2018-12-04T10:22:42.732Z,8.10
2018-12-04T10:25:30.592Z,8.10
2018-12-04T10:28:18.555Z,8.10
2018-12-04T10:31:25.680Z,8.20
2018-12-04T10:34:13.830Z,8.10
2018-12-04T10:37:01.670Z,8.10
2018-12-04T10:39:49.802Z,8.20
2018-12-04T10:42:37.356Z,8.30
2018-12-04T10:45:24.933Z,8.30
2018-12-04T10:48:12.912Z,8.30
2018-12-04T10:51:00.490Z,8.40
2018-12-04T10:53:48.387Z,8.50
2018-12-04T10:56:36.044Z,8.60
2018-12-04T10:59:23.838Z,8.70
2018-12-04T11:02:30.682Z,8.70
2018-12-04T11:05:18.559Z,8.80
2018-12-04T11:08:06.707Z,8.80
2018-12-04T11:10:54.295Z,8.80
2018-12-04T11:13:41.866Z,8.80
2018-12-04T11:16:29.719Z,8.70
2018-12-04T11:19:17.536Z,8.80
2018-12-04T11:22:05.087Z,8.90
2018-12-04T11:24:53.521Z,9.00
2018-12-04T11:27:41.102Z,9.00
2018-12-04T11:30:28.682Z,9.10
2018-12-04T11:33:16.272Z,9.00
2018-12-04T11:36:04.355Z,9.10
2018-12-04T11:38:52.180Z,9.00
2018-12-04T11:41:39.746Z,9.00
2018-12-04T11:44:27.674Z,9.10
2018-12-04T11:47:15.234Z,9.20
2018-12-04T11:53:34.505Z,9.40
2018-12-04T11:56:22.426Z,9.40
2018-12-04T11:59:10.251Z,9.40
2018-12-04T12:01:57.924Z,9.40
2018-12-04T12:07:54.631Z,9.60
2018-12-04T12:10:42.248Z,9.50
2018-12-04T12:13:30.131Z,9.30
2018-12-04T12:16:18.069Z,9.30
2018-12-04T12:19:05.636Z,9.20
2018-12-04T12:21:53.455Z,9.10
2018-12-04T12:24:41.315Z,9.10
2018-12-04T12:27:29.205Z,8.80
2018-12-04T12:30:16.769Z,8.70
2018-12-04T12:33:04.674Z,8.70
2018-12-04T12:35:52.608Z,8.60
2018-12-04T12:38:40.449Z,8.50
2018-12-04T12:41:28.024Z,8.60
2018-12-04T12:44:16.025Z,8.60
2018-12-04T12:47:03.848Z,8.60
2018-12-04T12:49:51.784Z,8.60
2018-12-04T12:52:39.637Z,8.60
2018-12-04T12:55:27.479Z,8.60
2018-12-04T12:58:15.399Z,8.70
2018-12-04T13:01:02.958Z,8.60
2018-12-04T13:03:31.052Z,8.60
2018-12-04T13:06:18.856Z,8.70
2018-12-04T13:09:07.099Z,8.60
2018-12-04T13:11:55.028Z,8.60
2018-12-04T13:14:42.860Z,8.60
2018-12-04T13:17:30.679Z,8.60
2018-12-04T13:20:18.544Z,8.50
2018-12-04T13:23:06.111Z,8.60
2018-12-04T13:25:53.687Z,8.60
2018-12-04T13:28:41.289Z,8.50
2018-12-04T13:31:29.765Z,8.40
2018-12-04T13:34:17.712Z,8.50
2018-12-04T13:37:05.303Z,8.40
2018-12-04T13:39:52.867Z,8.30
2018-12-04T13:42:40.475Z,8.30
2018-12-04T13:45:28.342Z,8.40
2018-12-04T13:51:11.218Z,8.30
2018-12-04T13:53:58.801Z,8.20
2018-12-04T13:56:46.653Z,8.20
2018-12-04T14:02:29.320Z,8.20
2018-12-04T14:05:17.214Z,8.10
2018-12-04T14:08:04.778Z,8.00
2018-12-04T14:10:52.434Z,8.10
2018-12-04T14:13:40.071Z,8.10
2018-12-04T14:16:27.649Z,8.10
2018-12-04T14:22:16.271Z,8.00
2018-12-04T14:28:00.595Z,7.90
2018-12-04T14:30:48.521Z,7.90
2018-12-04T14:36:45.538Z,7.90
2018-12-04T14:39:33.271Z,7.80
2018-12-04T14:42:21.198Z,7.80
2018-12-04T14:45:09.139Z,7.80
2018-12-04T14:47:57.081Z,7.70
2018-12-04T14:53:40.016Z,7.80
2018-12-04T14:56:28.385Z,7.60
2018-12-04T14:59:16.225Z,7.70
2018-12-04T15:02:03.933Z,7.60
2018-12-04T15:04:51.591Z,7.60
2018-12-04T15:07:39.167Z,7.50
2018-12-04T15:13:26.655Z,7.50
2018-12-04T15:16:14.524Z,7.50
2018-12-04T15:19:02.178Z,7.50
2018-12-04T15:21:50.442Z,7.50
2018-12-04T15:24:38.147Z,7.50
2018-12-04T15:27:26.051Z,7.50
2018-12-04T15:30:13.960Z,7.50
2018-12-04T15:33:01.883Z,7.40
2018-12-04T15:35:49.813Z,7.40
2018-12-04T15:38:39.500Z,7.50
2018-12-04T15:41:27.088Z,7.40
2018-12-04T15:44:14.954Z,7.40
2018-12-04T15:47:02.628Z,7.30
2018-12-04T15:49:50.482Z,7.20
2018-12-04T15:52:38.049Z,7.20
2018-12-04T15:55:25.900Z,7.10
2018-12-04T15:58:13.467Z,7.20
2018-12-04T16:01:01.366Z,7.10
2018-12-04T16:03:49.150Z,7.10
2018-12-04T16:06:37.036Z,7.00
2018-12-04T16:09:24.611Z,6.90
2018-12-04T16:12:12.511Z,6.60
2018-12-04T16:15:00.071Z,6.50
2018-12-04T16:20:43.579Z,6.30
2018-12-04T16:23:31.149Z,6.30
2018-12-04T16:26:18.759Z,6.30
2018-12-04T16:32:15.499Z,6.10
2018-12-04T16:35:03.163Z,6.20
2018-12-04T16:43:54.954Z,6.10
2018-12-04T16:46:42.864Z,6.00
2018-12-04T16:49:30.422Z,5.90
2018-12-04T16:52:18.033Z,5.90
2018-12-04T16:58:15.026Z,5.80
2018-12-04T17:00:43.211Z,5.80
2018-12-04T17:03:30.802Z,5.80
2018-12-04T17:06:18.725Z,5.70
2018-12-04T17:18:16.835Z,5.90
2018-12-04T17:21:04.431Z,6.00
2018-12-04T17:23:52.346Z,6.00
2018-12-04T17:26:39.906Z,6.10
2018-12-04T17:29:27.798Z,6.20
2018-12-04T17:32:15.415Z,6.30
2018-12-04T17:35:03.370Z,6.40
2018-12-04T17:37:50.934Z,6.30
2018-12-04T17:43:47.506Z,6.40
2018-12-04T17:46:35.501Z,6.40
2018-12-04T17:49:23.359Z,6.40
2018-12-04T17:52:10.942Z,6.50
2018-12-04T17:54:58.527Z,6.50
2018-12-04T17:57:46.443Z,6.40
2018-12-04T18:00:34.022Z,6.40
2018-12-04T18:03:21.902Z,6.20
2018-12-04T18:06:09.876Z,6.10
2018-12-04T18:08:57.501Z,6.10
2018-12-04T18:11:45.088Z,6.00
2018-12-04T18:17:25.757Z,5.90
2018-12-04T18:20:13.758Z,5.90
2018-12-04T18:23:01.684Z,5.80
2018-12-04T18:25:49.719Z,5.70
2018-12-04T18:28:37.659Z,5.90
2018-12-04T18:31:25.486Z,5.80
2018-12-04T18:34:13.336Z,5.70
2018-12-04T18:37:00.906Z,5.80
2018-12-04T18:39:48.487Z,5.80
2018-12-04T18:42:36.058Z,5.80
2018-12-04T18:45:23.946Z,5.60
2018-12-04T18:48:11.528Z,5.80
2018-12-04T18:50:59.280Z,5.70
2018-12-04T18:53:47.461Z,5.80
2018-12-04T18:56:35.301Z,5.80
2018-12-04T18:59:22.886Z,5.80
2018-12-04T19:02:11.177Z,5.90
2018-12-04T19:05:18.450Z,5.90
2018-12-04T19:08:06.296Z,5.90
2018-12-04T19:10:53.879Z,5.90
2018-12-04T19:13:41.770Z,5.80
2018-12-04T19:16:29.702Z,5.70
2018-12-04T19:19:17.517Z,5.70
2018-12-04T19:22:05.122Z,5.50
2018-12-04T19:27:48.076Z,5.40
2018-12-04T19:30:35.959Z,5.30
2018-12-04T19:33:23.544Z,5.20
2018-12-04T19:51:01.695Z,4.60
2018-12-04T19:53:49.248Z,4.80
2018-12-04T19:56:36.830Z,4.30
2018-12-04T19:59:24.635Z,4.30
2018-12-04T20:02:12.523Z,4.20
2018-12-04T20:05:00.076Z,4.20
2018-12-04T20:07:47.922Z,4.00
2018-12-04T20:10:35.832Z,4.10
2018-12-04T20:13:23.436Z,4.10
2018-12-04T20:16:11.020Z,4.00
2018-12-04T20:18:58.587Z,4.00
2018-12-04T20:27:31.465Z,3.90
2018-12-04T20:30:19.111Z,3.80
2018-12-04T20:33:07.021Z,4.10
2018-12-04T20:35:54.859Z,3.90
2018-12-04T20:41:37.453Z,3.80
2018-12-04T20:44:25.319Z,3.80
2018-12-04T20:47:12.909Z,3.60
2018-12-04T20:50:00.488Z,3.60
2018-12-04T20:52:48.095Z,3.70
2018-12-04T20:55:35.660Z,3.60
2018-12-04T21:01:19.080Z,3.60
2018-12-04T21:04:06.936Z,3.50
2018-12-04T21:06:54.768Z,3.50
2018-12-04T21:09:42.602Z,3.50
2018-12-04T21:12:30.547Z,3.70
2018-12-04T21:15:18.121Z,3.60
2018-12-04T21:18:05.704Z,3.60
2018-12-04T21:20:53.540Z,3.50
2018-12-04T21:23:41.396Z,3.40
2018-12-04T21:26:28.991Z,3.40
2018-12-04T21:29:36.297Z,3.40
2018-12-04T21:32:43.324Z,3.30
2018-12-04T21:35:50.348Z,3.30
2018-12-04T21:38:57.364Z,3.30
2018-12-04T21:42:04.144Z,3.30
2018-12-04T21:45:11.164Z,3.20
2018-12-04T21:51:12.391Z,3.00
2018-12-04T21:54:00.003Z,2.80
2018-12-04T21:56:47.580Z,3.10
2018-12-04T21:59:35.155Z,2.80
2018-12-04T22:05:31.643Z,2.90
2018-12-04T22:11:27.855Z,2.70
2018-12-04T22:14:15.740Z,2.90
2018-12-04T22:17:03.394Z,2.60
2018-12-04T22:19:51.312Z,2.70
2018-12-04T22:22:38.870Z,2.50
2018-12-04T22:25:27.075Z,2.40
2018-12-04T22:28:15.773Z,2.30
2018-12-04T22:31:03.671Z,2.60
2018-12-04T22:33:51.565Z,2.50
2018-12-04T22:36:39.456Z,2.60
2018-12-04T22:39:27.029Z,2.70
2018-12-04T22:42:14.942Z,2.70
2018-12-04T22:45:22.069Z,2.70
2018-12-04T22:51:18.806Z,2.80
2018-12-04T22:54:06.375Z,2.80
2018-12-04T22:56:54.245Z,2.80
2018-12-04T22:59:42.062Z,2.80
2018-12-04T23:02:30.004Z,2.90
2018-12-04T23:05:18.082Z,2.80
2018-12-04T23:08:05.998Z,2.90
2018-12-04T23:10:53.558Z,2.90
2018-12-04T23:13:41.447Z,2.90
2018-12-04T23:16:29.029Z,3.00
2018-12-04T23:19:16.916Z,3.00
2018-12-04T23:22:04.505Z,2.90
2018-12-04T23:24:52.063Z,2.80
2018-12-04T23:27:39.871Z,2.80
2018-12-04T23:30:27.747Z,2.80
2018-12-04T23:33:15.685Z,2.70
2018-12-04T23:36:03.626Z,2.90
2018-12-04T23:38:51.562Z,2.60
2018-12-04T23:41:39.147Z,2.60
2018-12-04T23:44:26.955Z,2.60
2018-12-04T23:47:15.073Z,2.60
2018-12-04T23:50:02.915Z,2.80
2018-12-04T23:52:50.487Z,2.70
2018-12-04T23:55:38.682Z,2.70
2018-12-04T23:58:26.540Z,2.80
